sensor_id;sensor_type;location;lat;lon;timestamp;pressure;altitude;pressure_sealevel;temperature;humidity
52319;BME280;38258;51.148;14.068;2023-02-14T00:00:27;100353.28;;;1.63;100.00
52319;BME280;38258;51.148;14.068;2023-02-14T00:02:54;100320.78;;;1.45;100.00
52319;BME280;38258;51.148;14.068;2023-02-14T00:05:21;100345.13;;;1.75;100.00
52319;BME280;38258;51.148;14.068;2023-02-14T00:07:48;100332.22;;;1.52;100.00
52319;BME280;38258;51.148;14.068;2023-02-14T00:10:15;100346.66;;;1.69;100.00
52319;BME280;38258;51.148;14.068;2023-02-14T00:12:42;100348.44;;;1.71;100.00
52319;BME280;38258;51.148;14.068;2023-02-14T00:15:09;100324.13;;;1.43;100.00
52319;BME280;38258;51.148;14.068;2023-02-14T00:17:48;100328.66;;;1.27;100.00
52319;BME280;38258;51.148;14.068;2023-02-14T00:20:15;100344.03;;;1.47;100.00
52319;BME280;38258;51.148;14.068;2023-02-14T00:22:42;100343.94;;;1.44;100.00
52319;BME280;38258;51.148;14.068;2023-02-14T00:25:09;100338.13;;;1.49;100.00
52319;BME280;38258;51.148;14.068;2023-02-14T00:27:36;100336.38;;;1.48;100.00
52319;BME280;38258;51.148;14.068;2023-02-14T00:30:03;100333.81;;;1.48;100.00
52319;BME280;38258;51.148;14.068;2023-02-14T00:32:30;100341.41;;;1.45;100.00
52319;BME280;38258;51.148;14.068;2023-02-14T00:34:58;100333.06;;;1.51;100.00
52319;BME280;38258;51.148;14.068;2023-02-14T00:37:26;100329.53;;;1.27;100.00
52319;BME280;38258;51.148;14.068;2023-02-14T00:39:53;100341.75;;;1.10;100.00
52319;BME280;38258;51.148;14.068;2023-02-14T00:42:19;100335.06;;;1.16;100.00
52319;BME280;38258;51.148;14.068;2023-02-14T00:44:46;100336.59;;;1.32;100.00
52319;BME280;38258;51.148;14.068;2023-02-14T00:47:13;100328.38;;;1.42;100.00
52319;BME280;38258;51.148;14.068;2023-02-14T00:49:40;100338.69;;;1.42;100.00
52319;BME280;38258;51.148;14.068;2023-02-14T00:52:08;100338.38;;;1.34;100.00
52319;BME280;38258;51.148;14.068;2023-02-14T00:54:34;100350.97;;;1.48;100.00
52319;BME280;38258;51.148;14.068;2023-02-14T00:57:01;100347.31;;;1.43;100.00
52319;BME280;38258;51.148;14.068;2023-02-14T00:59:28;100353.00;;;1.34;100.00
52319;BME280;38258;51.148;14.068;2023-02-14T01:01:55;100345.56;;;1.20;100.00
52319;BME280;38258;51.148;14.068;2023-02-14T01:04:22;100339.84;;;1.27;100.00
52319;BME280;38258;51.148;14.068;2023-02-14T01:06:48;100333.94;;;1.30;100.00
52319;BME280;38258;51.148;14.068;2023-02-14T01:09:16;100324.69;;;1.35;100.00
52319;BME280;38258;51.148;14.068;2023-02-14T01:11:43;100325.44;;;1.54;100.00
52319;BME280;38258;51.148;14.068;2023-02-14T01:14:10;100327.63;;;1.45;100.00
52319;BME280;38258;51.148;14.068;2023-02-14T01:16:37;100307.00;;;1.45;100.00
52319;BME280;38258;51.148;14.068;2023-02-14T01:19:04;100321.84;;;1.50;100.00
52319;BME280;38258;51.148;14.068;2023-02-14T01:21:33;100320.03;;;1.26;100.00
52319;BME280;38258;51.148;14.068;2023-02-14T01:24:02;100317.53;;;1.28;100.00
52319;BME280;38258;51.148;14.068;2023-02-14T01:26:30;100314.94;;;1.28;100.00
52319;BME280;38258;51.148;14.068;2023-02-14T01:29:00;100321.53;;;1.43;100.00
52319;BME280;38258;51.148;14.068;2023-02-14T01:31:29;100311.31;;;1.44;100.00
52319;BME280;38258;51.148;14.068;2023-02-14T01:33:57;100311.34;;;1.46;100.00
52319;BME280;38258;51.148;14.068;2023-02-14T01:36:25;100311.53;;;1.50;100.00
52319;BME280;38258;51.148;14.068;2023-02-14T01:38:55;100302.41;;;1.59;100.00
52319;BME280;38258;51.148;14.068;2023-02-14T01:41:24;100301.44;;;1.57;100.00
52319;BME280;38258;51.148;14.068;2023-02-14T01:43:56;100311.81;;;1.58;100.00
52319;BME280;38258;51.148;14.068;2023-02-14T01:46:24;100285.56;;;1.46;100.00
52319;BME280;38258;51.148;14.068;2023-02-14T01:48:54;100304.78;;;1.54;100.00
52319;BME280;38258;51.148;14.068;2023-02-14T01:51:24;100296.69;;;1.45;100.00
52319;BME280;38258;51.148;14.068;2023-02-14T01:53:53;100306.56;;;1.55;100.00
52319;BME280;38258;51.148;14.068;2023-02-14T01:56:24;100303.91;;;1.53;100.00
52319;BME280;38258;51.148;14.068;2023-02-14T01:58:55;100308.31;;;1.56;100.00
52319;BME280;38258;51.148;14.068;2023-02-14T02:01:25;100311.00;;;1.36;100.00
52319;BME280;38258;51.148;14.068;2023-02-14T02:03:54;100307.59;;;1.37;100.00
52319;BME280;38258;51.148;14.068;2023-02-14T02:06:25;100310.53;;;1.25;100.00
52319;BME280;38258;51.148;14.068;2023-02-14T02:09:02;100304.53;;;1.48;100.00
52319;BME280;38258;51.148;14.068;2023-02-14T02:11:33;100292.13;;;1.37;100.00
52319;BME280;38258;51.148;14.068;2023-02-14T02:14:02;100295.44;;;1.35;100.00
52319;BME280;38258;51.148;14.068;2023-02-14T02:16:46;100302.28;;;1.34;100.00
52319;BME280;38258;51.148;14.068;2023-02-14T02:22:51;100276.94;;;1.45;100.00
52319;BME280;38258;51.148;14.068;2023-02-14T02:25:34;100286.16;;;1.38;100.00
52319;BME280;38258;51.148;14.068;2023-02-14T02:28:35;100274.13;;;1.39;100.00
52319;BME280;38258;51.148;14.068;2023-02-14T02:31:20;100275.88;;;1.40;100.00
52319;BME280;38258;51.148;14.068;2023-02-14T02:34:24;100273.28;;;1.40;100.00
52319;BME280;38258;51.148;14.068;2023-02-14T02:37:20;100287.13;;;0.98;100.00
52319;BME280;38258;51.148;14.068;2023-02-14T02:40:01;100290.31;;;1.13;100.00
52319;BME280;38258;51.148;14.068;2023-02-14T02:42:34;100287.97;;;1.20;100.00
52319;BME280;38258;51.148;14.068;2023-02-14T02:45:10;100286.41;;;1.23;100.00
52319;BME280;38258;51.148;14.068;2023-02-14T02:47:41;100290.03;;;1.29;100.00
52319;BME280;38258;51.148;14.068;2023-02-14T02:50:17;100296.28;;;1.12;100.00
52319;BME280;38258;51.148;14.068;2023-02-14T02:53:12;100299.28;;;1.02;100.00
52319;BME280;38258;51.148;14.068;2023-02-14T02:55:42;100290.25;;;1.12;100.00
52319;BME280;38258;51.148;14.068;2023-02-14T02:58:33;100283.25;;;1.31;100.00
52319;BME280;38258;51.148;14.068;2023-02-14T03:01:06;100285.84;;;1.31;100.00
52319;BME280;38258;51.148;14.068;2023-02-14T03:03:34;100282.44;;;1.32;100.00
52319;BME280;38258;51.148;14.068;2023-02-14T03:06:20;100286.09;;;1.16;100.00
52319;BME280;38258;51.148;14.068;2023-02-14T03:08:48;100286.22;;;1.19;100.00
52319;BME280;38258;51.148;14.068;2023-02-14T03:11:15;100276.50;;;1.11;100.00
52319;BME280;38258;51.148;14.068;2023-02-14T03:13:53;100287.44;;;1.06;100.00
52319;BME280;38258;51.148;14.068;2023-02-14T03:16:32;100281.69;;;1.13;100.00
52319;BME280;38258;51.148;14.068;2023-02-14T03:19:25;100282.31;;;1.07;100.00
52319;BME280;38258;51.148;14.068;2023-02-14T03:21:58;100278.88;;;1.07;100.00
52319;BME280;38258;51.148;14.068;2023-02-14T03:24:34;100289.50;;;1.15;100.00
52319;BME280;38258;51.148;14.068;2023-02-14T03:27:12;100276.59;;;1.15;100.00
52319;BME280;38258;51.148;14.068;2023-02-14T03:29:50;100290.13;;;1.09;100.00
52319;BME280;38258;51.148;14.068;2023-02-14T03:32:27;100284.34;;;1.15;100.00
52319;BME280;38258;51.148;14.068;2023-02-14T03:34:59;100274.41;;;1.03;100.00
52319;BME280;38258;51.148;14.068;2023-02-14T03:37:32;100291.56;;;1.02;100.00
52319;BME280;38258;51.148;14.068;2023-02-14T03:40:05;100288.34;;;0.87;100.00
52319;BME280;38258;51.148;14.068;2023-02-14T03:42:39;100288.25;;;0.83;100.00
52319;BME280;38258;51.148;14.068;2023-02-14T03:45:13;100296.97;;;0.87;100.00
52319;BME280;38258;51.148;14.068;2023-02-14T03:47:42;100298.28;;;0.98;100.00
52319;BME280;38258;51.148;14.068;2023-02-14T03:50:13;100293.00;;;0.95;100.00
52319;BME280;38258;51.148;14.068;2023-02-14T03:52:42;100290.69;;;1.02;100.00
52319;BME280;38258;51.148;14.068;2023-02-14T03:55:14;100291.56;;;1.02;100.00
52319;BME280;38258;51.148;14.068;2023-02-14T03:57:48;100294.25;;;1.05;100.00
52319;BME280;38258;51.148;14.068;2023-02-14T04:00:17;100288.28;;;1.06;100.00
52319;BME280;38258;51.148;14.068;2023-02-14T04:02:47;100302.75;;;0.81;100.00
52319;BME280;38258;51.148;14.068;2023-02-14T04:05:18;100298.97;;;0.94;100.00
52319;BME280;38258;51.148;14.068;2023-02-14T04:07:49;100297.59;;;0.81;100.00
52319;BME280;38258;51.148;14.068;2023-02-14T04:10:18;100290.00;;;0.84;100.00
52319;BME280;38258;51.148;14.068;2023-02-14T04:12:46;100280.63;;;0.87;100.00
52319;BME280;38258;51.148;14.068;2023-02-14T04:15:13;100282.06;;;1.01;100.00
52319;BME280;38258;51.148;14.068;2023-02-14T04:17:40;100289.38;;;0.90;100.00
52319;BME280;38258;51.148;14.068;2023-02-14T04:20:25;100280.56;;;0.85;100.00
52319;BME280;38258;51.148;14.068;2023-02-14T04:22:53;100279.56;;;0.81;100.00
52319;BME280;38258;51.148;14.068;2023-02-14T04:25:21;100274.03;;;0.72;100.00
52319;BME280;38258;51.148;14.068;2023-02-14T04:27:48;100269.75;;;0.73;100.00
52319;BME280;38258;51.148;14.068;2023-02-14T04:30:16;100254.78;;;0.64;100.00
52319;BME280;38258;51.148;14.068;2023-02-14T04:32:45;100263.28;;;0.61;100.00
52319;BME280;38258;51.148;14.068;2023-02-14T04:35:15;100271.56;;;0.75;100.00
52319;BME280;38258;51.148;14.068;2023-02-14T04:37:42;100248.69;;;0.62;100.00
52319;BME280;38258;51.148;14.068;2023-02-14T04:40:09;100262.59;;;0.87;100.00
52319;BME280;38258;51.148;14.068;2023-02-14T04:42:38;100274.22;;;0.77;100.00
52319;BME280;38258;51.148;14.068;2023-02-14T04:45:05;100269.31;;;0.83;100.00
52319;BME280;38258;51.148;14.068;2023-02-14T04:47:32;100274.25;;;0.78;100.00
52319;BME280;38258;51.148;14.068;2023-02-14T04:49:59;100276.34;;;0.66;100.00
52319;BME280;38258;51.148;14.068;2023-02-14T04:52:25;100279.78;;;0.66;100.00
52319;BME280;38258;51.148;14.068;2023-02-14T04:54:52;100275.53;;;0.67;100.00
52319;BME280;38258;51.148;14.068;2023-02-14T04:57:19;100271.31;;;0.69;100.00
52319;BME280;38258;51.148;14.068;2023-02-14T04:59:47;100261.06;;;0.70;100.00
52319;BME280;38258;51.148;14.068;2023-02-14T05:02:14;100267.63;;;0.62;100.00
52319;BME280;38258;51.148;14.068;2023-02-14T05:04:41;100260.44;;;0.97;100.00
52319;BME280;38258;51.148;14.068;2023-02-14T05:07:08;100262.09;;;0.95;100.00
52319;BME280;38258;51.148;14.068;2023-02-14T05:09:34;100246.91;;;0.80;100.00
52319;BME280;38258;51.148;14.068;2023-02-14T05:12:01;100241.91;;;0.85;100.00
52319;BME280;38258;51.148;14.068;2023-02-14T05:14:28;100250.09;;;0.75;100.00
52319;BME280;38258;51.148;14.068;2023-02-14T05:16:56;100252.47;;;0.70;100.00
52319;BME280;38258;51.148;14.068;2023-02-14T05:19:23;100261.22;;;0.74;100.00
52319;BME280;38258;51.148;14.068;2023-02-14T05:21:50;100257.50;;;0.67;100.00
52319;BME280;38258;51.148;14.068;2023-02-14T05:24:17;100255.91;;;0.70;100.00
52319;BME280;38258;51.148;14.068;2023-02-14T05:26:44;100258.66;;;0.74;100.00
52319;BME280;38258;51.148;14.068;2023-02-14T05:29:10;100239.47;;;0.67;100.00
52319;BME280;38258;51.148;14.068;2023-02-14T05:31:37;100242.06;;;0.67;100.00
52319;BME280;38258;51.148;14.068;2023-02-14T05:34:06;100240.66;;;0.75;100.00
52319;BME280;38258;51.148;14.068;2023-02-14T05:36:32;100247.88;;;0.84;100.00
52319;BME280;38258;51.148;14.068;2023-02-14T05:38:59;100252.22;;;0.64;100.00
52319;BME280;38258;51.148;14.068;2023-02-14T05:41:26;100244.31;;;0.80;100.00
52319;BME280;38258;51.148;14.068;2023-02-14T05:43:53;100248.66;;;0.81;100.00
52319;BME280;38258;51.148;14.068;2023-02-14T05:46:20;100239.34;;;0.85;100.00
52319;BME280;38258;51.148;14.068;2023-02-14T05:48:47;100240.66;;;0.75;100.00
52319;BME280;38258;51.148;14.068;2023-02-14T05:51:15;100257.44;;;0.65;100.00
52319;BME280;38258;51.148;14.068;2023-02-14T05:53:42;100250.22;;;0.78;100.00
52319;BME280;38258;51.148;14.068;2023-02-14T05:56:08;100253.72;;;0.80;100.00
52319;BME280;38258;51.148;14.068;2023-02-14T05:58:35;100251.41;;;0.86;100.00
52319;BME280;38258;51.148;14.068;2023-02-14T06:01:02;100258.50;;;0.92;100.00
52319;BME280;38258;51.148;14.068;2023-02-14T06:03:29;100253.81;;;0.81;100.00
52319;BME280;38258;51.148;14.068;2023-02-14T06:05:56;100249.47;;;0.80;100.00
52319;BME280;38258;51.148;14.068;2023-02-14T06:08:24;100255.59;;;0.84;100.00
52319;BME280;38258;51.148;14.068;2023-02-14T06:10:51;100253.03;;;0.84;100.00
52319;BME280;38258;51.148;14.068;2023-02-14T06:13:18;100259.09;;;0.84;100.00
52319;BME280;38258;51.148;14.068;2023-02-14T06:15:44;100268.81;;;0.92;100.00
52319;BME280;38258;51.148;14.068;2023-02-14T06:18:11;100255.28;;;0.76;100.00
52319;BME280;38258;51.148;14.068;2023-02-14T06:20:38;100264.72;;;0.76;100.00
52319;BME280;38258;51.148;14.068;2023-02-14T06:23:05;100261.53;;;0.60;100.00
52319;BME280;38258;51.148;14.068;2023-02-14T06:25:33;100268.38;;;0.81;100.00
52319;BME280;38258;51.148;14.068;2023-02-14T06:28:00;100269.81;;;0.74;100.00
52319;BME280;38258;51.148;14.068;2023-02-14T06:30:26;100275.91;;;0.76;100.00
52319;BME280;38258;51.148;14.068;2023-02-14T06:32:53;100240.97;;;0.62;100.00
52319;BME280;38258;51.148;14.068;2023-02-14T06:35:20;100278.63;;;0.79;100.00
52319;BME280;38258;51.148;14.068;2023-02-14T06:37:47;100271.25;;;0.89;100.00
52319;BME280;38258;51.148;14.068;2023-02-14T06:40:14;100272.41;;;0.95;100.00
52319;BME280;38258;51.148;14.068;2023-02-14T06:42:42;100278.69;;;1.02;100.00
52319;BME280;38258;51.148;14.068;2023-02-14T06:45:09;100280.94;;;0.94;100.00
52319;BME280;38258;51.148;14.068;2023-02-14T06:47:36;100284.78;;;1.04;100.00
52319;BME280;38258;51.148;14.068;2023-02-14T06:50:04;100285.72;;;1.06;100.00
52319;BME280;38258;51.148;14.068;2023-02-14T06:52:31;100280.44;;;1.03;100.00
52319;BME280;38258;51.148;14.068;2023-02-14T06:54:58;100278.88;;;1.07;100.00
52319;BME280;38258;51.148;14.068;2023-02-14T06:57:25;100285.66;;;1.05;100.00
52319;BME280;38258;51.148;14.068;2023-02-14T06:59:53;100275.59;;;1.11;100.00
52319;BME280;38258;51.148;14.068;2023-02-14T07:02:20;100266.00;;;1.07;100.00
52319;BME280;38258;51.148;14.068;2023-02-14T07:04:46;100277.84;;;1.24;100.00
52319;BME280;38258;51.148;14.068;2023-02-14T07:07:13;100261.22;;;1.16;100.00
52319;BME280;38258;51.148;14.068;2023-02-14T07:09:40;100271.13;;;1.28;100.00
52319;BME280;38258;51.148;14.068;2023-02-14T07:12:07;100268.56;;;1.51;100.00
52319;BME280;38258;51.148;14.068;2023-02-14T07:14:34;100269.72;;;1.59;100.00
52319;BME280;38258;51.148;14.068;2023-02-14T07:17:02;100268.44;;;1.71;100.00
52319;BME280;38258;51.148;14.068;2023-02-14T07:19:29;100265.69;;;1.66;100.00
52319;BME280;38258;51.148;14.068;2023-02-14T07:21:55;100265.56;;;1.63;100.00
52319;BME280;38258;51.148;14.068;2023-02-14T07:24:22;100265.91;;;1.72;100.00
52319;BME280;38258;51.148;14.068;2023-02-14T07:26:49;100274.44;;;1.69;100.00
52319;BME280;38258;51.148;14.068;2023-02-14T07:29:16;100260.81;;;1.74;100.00
52319;BME280;38258;51.148;14.068;2023-02-14T07:31:43;100268.84;;;1.81;100.00
52319;BME280;38258;51.148;14.068;2023-02-14T07:34:11;100266.72;;;1.94;100.00
52319;BME280;38258;51.148;14.068;2023-02-14T07:36:38;100267.81;;;2.01;100.00
52319;BME280;38258;51.148;14.068;2023-02-14T07:39:05;100267.09;;;2.05;100.00
52319;BME280;38258;51.148;14.068;2023-02-14T07:41:32;100262.19;;;2.11;100.00
52319;BME280;38258;51.148;14.068;2023-02-14T07:43:58;100263.78;;;2.07;100.00
52319;BME280;38258;51.148;14.068;2023-02-14T07:46:25;100263.84;;;2.09;100.00
52319;BME280;38258;51.148;14.068;2023-02-14T07:48:52;100269.09;;;2.12;100.00
52319;BME280;38258;51.148;14.068;2023-02-14T07:51:20;100260.97;;;2.01;100.00
52319;BME280;38258;51.148;14.068;2023-02-14T07:53:47;100266.13;;;2.25;100.00
52319;BME280;38258;51.148;14.068;2023-02-14T07:56:14;100263.28;;;2.18;100.00
52319;BME280;38258;51.148;14.068;2023-02-14T07:58:40;100257.34;;;2.20;100.00
52319;BME280;38258;51.148;14.068;2023-02-14T08:01:07;100256.22;;;2.14;100.00
52319;BME280;38258;51.148;14.068;2023-02-14T08:03:34;100261.81;;;2.24;100.00
52319;BME280;38258;51.148;14.068;2023-02-14T08:06:01;100256.25;;;2.38;100.00
52319;BME280;38258;51.148;14.068;2023-02-14T08:08:30;100250.28;;;2.40;100.00
52319;BME280;38258;51.148;14.068;2023-02-14T08:10:57;100247.63;;;2.13;100.00
52319;BME280;38258;51.148;14.068;2023-02-14T08:13:24;100254.25;;;2.31;100.00
52319;BME280;38258;51.148;14.068;2023-02-14T08:15:51;100261.91;;;2.28;100.00
52319;BME280;38258;51.148;14.068;2023-02-14T08:18:31;100256.31;;;2.15;100.00
52319;BME280;38258;51.148;14.068;2023-02-14T08:20:59;100261.19;;;2.32;100.00
52319;BME280;38258;51.148;14.068;2023-02-14T08:23:26;100259.84;;;2.43;100.00
52319;BME280;38258;51.148;14.068;2023-02-14T08:25:54;100261.13;;;2.54;100.00
52319;BME280;38258;51.148;14.068;2023-02-14T08:28:24;100273.38;;;2.36;100.00
52319;BME280;38258;51.148;14.068;2023-02-14T08:30:51;100272.97;;;2.23;100.00
52319;BME280;38258;51.148;14.068;2023-02-14T08:33:19;100268.75;;;2.27;100.00
52319;BME280;38258;51.148;14.068;2023-02-14T08:35:50;100275.47;;;2.46;100.00
52319;BME280;38258;51.148;14.068;2023-02-14T08:38:18;100274.88;;;2.53;100.00
52319;BME280;38258;51.148;14.068;2023-02-14T08:40:45;100278.69;;;2.40;100.00
52319;BME280;38258;51.148;14.068;2023-02-14T08:43:13;100280.31;;;2.37;100.00
52319;BME280;38258;51.148;14.068;2023-02-14T08:45:41;100276.94;;;2.39;100.00
52319;BME280;38258;51.148;14.068;2023-02-14T08:48:10;100270.66;;;2.31;100.00
52319;BME280;38258;51.148;14.068;2023-02-14T08:50:38;100283.00;;;2.40;100.00
52319;BME280;38258;51.148;14.068;2023-02-14T08:53:06;100278.03;;;2.46;100.00
52319;BME280;38258;51.148;14.068;2023-02-14T08:55:35;100264.03;;;2.39;100.00
52319;BME280;38258;51.148;14.068;2023-02-14T08:58:02;100272.53;;;2.61;100.00
52319;BME280;38258;51.148;14.068;2023-02-14T09:00:31;100271.03;;;2.68;100.00
52319;BME280;38258;51.148;14.068;2023-02-14T09:02:58;100271.31;;;2.76;100.00
52319;BME280;38258;51.148;14.068;2023-02-14T09:05:25;100277.03;;;2.67;100.00
52319;BME280;38258;51.148;14.068;2023-02-14T09:07:52;100275.16;;;2.89;100.00
52319;BME280;38258;51.148;14.068;2023-02-14T09:10:20;100275.41;;;2.71;100.00
52319;BME280;38258;51.148;14.068;2023-02-14T09:12:47;100263.38;;;2.71;100.00
52319;BME280;38258;51.148;14.068;2023-02-14T09:15:14;100279.59;;;2.93;100.00
52319;BME280;38258;51.148;14.068;2023-02-14T09:17:42;100282.03;;;2.62;100.00
52319;BME280;38258;51.148;14.068;2023-02-14T09:20:12;100293.94;;;2.33;100.00
52319;BME280;38258;51.148;14.068;2023-02-14T09:22:39;100291.19;;;2.52;100.00
52319;BME280;38258;51.148;14.068;2023-02-14T09:25:06;100292.41;;;2.64;100.00
52319;BME280;38258;51.148;14.068;2023-02-14T09:27:33;100292.84;;;2.76;100.00
52319;BME280;38258;51.148;14.068;2023-02-14T09:30:01;100290.31;;;2.78;100.00
52319;BME280;38258;51.148;14.068;2023-02-14T09:32:28;100289.84;;;2.90;100.00
52319;BME280;38258;51.148;14.068;2023-02-14T09:34:57;100296.59;;;2.86;100.00
52319;BME280;38258;51.148;14.068;2023-02-14T09:37:24;100297.03;;;2.48;100.00
52319;BME280;38258;51.148;14.068;2023-02-14T09:39:51;100293.25;;;2.63;100.00
52319;BME280;38258;51.148;14.068;2023-02-14T09:42:31;100294.72;;;2.80;100.00
52319;BME280;38258;51.148;14.068;2023-02-14T09:45:07;100287.31;;;2.65;100.00
52319;BME280;38258;51.148;14.068;2023-02-14T09:47:38;100294.47;;;2.73;100.00
52319;BME280;38258;51.148;14.068;2023-02-14T09:50:14;100271.41;;;2.79;100.00
52319;BME280;38258;51.148;14.068;2023-02-14T09:52:46;100293.19;;;3.13;100.00
52319;BME280;38258;51.148;14.068;2023-02-14T09:55:16;100292.50;;;3.19;100.00
52319;BME280;38258;51.148;14.068;2023-02-14T09:57:56;100269.47;;;2.73;100.00
52319;BME280;38258;51.148;14.068;2023-02-14T10:00:33;100292.75;;;2.99;100.00
52319;BME280;38258;51.148;14.068;2023-02-14T10:03:11;100291.72;;;2.68;100.00
52319;BME280;38258;51.148;14.068;2023-02-14T10:05:48;100292.69;;;2.46;100.00
52319;BME280;38258;51.148;14.068;2023-02-14T10:08:28;100291.88;;;2.73;100.00
52319;BME280;38258;51.148;14.068;2023-02-14T10:11:02;100297.09;;;3.00;100.00
52319;BME280;38258;51.148;14.068;2023-02-14T10:13:37;100287.50;;;2.97;100.00
52319;BME280;38258;51.148;14.068;2023-02-14T10:16:09;100294.47;;;3.26;100.00
52319;BME280;38258;51.148;14.068;2023-02-14T10:18:41;100297.09;;;2.74;100.00
52319;BME280;38258;51.148;14.068;2023-02-14T10:21:22;100291.56;;;2.89;100.00
52319;BME280;38258;51.148;14.068;2023-02-14T10:23:52;100289.75;;;2.87;100.00
52319;BME280;38258;51.148;14.068;2023-02-14T10:26:28;100289.50;;;2.79;100.00
52319;BME280;38258;51.148;14.068;2023-02-14T10:28:55;100284.22;;;3.02;100.00
52319;BME280;38258;51.148;14.068;2023-02-14T10:31:24;100289.44;;;2.77;100.00
52319;BME280;38258;51.148;14.068;2023-02-14T10:33:54;100278.41;;;2.57;100.00
52319;BME280;38258;51.148;14.068;2023-02-14T10:36:46;100280.84;;;2.52;100.00
52319;BME280;38258;51.148;14.068;2023-02-14T10:39:28;100283.84;;;2.65;100.00
52319;BME280;38258;51.148;14.068;2023-02-14T10:42:03;100284.34;;;3.06;100.00
52319;BME280;38258;51.148;14.068;2023-02-14T10:44:43;100284.56;;;2.87;100.00
52319;BME280;38258;51.148;14.068;2023-02-14T10:47:22;100280.34;;;2.89;100.00
52319;BME280;38258;51.148;14.068;2023-02-14T10:49:56;100286.06;;;2.80;100.00
52319;BME280;38258;51.148;14.068;2023-02-14T10:52:37;100280.41;;;2.90;100.00
52319;BME280;38258;51.148;14.068;2023-02-14T10:55:11;100274.97;;;2.82;100.00
52319;BME280;38258;51.148;14.068;2023-02-14T10:57:41;100253.13;;;3.00;100.00
52319;BME280;38258;51.148;14.068;2023-02-14T11:00:18;100277.16;;;2.97;100.00
52319;BME280;38258;51.148;14.068;2023-02-14T11:02:50;100268.97;;;2.83;100.00
52319;BME280;38258;51.148;14.068;2023-02-14T11:05:23;100250.38;;;2.68;100.00
52319;BME280;38258;51.148;14.068;2023-02-14T11:07:52;100272.72;;;2.66;100.00
52319;BME280;38258;51.148;14.068;2023-02-14T11:10:25;100257.69;;;2.56;100.00
52319;BME280;38258;51.148;14.068;2023-02-14T11:12:54;100262.81;;;2.54;100.00
52319;BME280;38258;51.148;14.068;2023-02-14T11:15:24;100266.06;;;3.00;100.00
52319;BME280;38258;51.148;14.068;2023-02-14T11:18:08;100264.22;;;2.96;100.00
52319;BME280;38258;51.148;14.068;2023-02-14T11:20:35;100256.31;;;2.91;100.00
52319;BME280;38258;51.148;14.068;2023-02-14T11:23:16;100259.31;;;3.05;100.00
52319;BME280;38258;51.148;14.068;2023-02-14T11:25:49;100259.88;;;3.22;100.00
52319;BME280;38258;51.148;14.068;2023-02-14T11:28:17;100264.16;;;3.22;100.00
52319;BME280;38258;51.148;14.068;2023-02-14T11:30:46;100266.06;;;3.00;100.00
52319;BME280;38258;51.148;14.068;2023-02-14T11:33:31;100265.84;;;2.94;100.00
52319;BME280;38258;51.148;14.068;2023-02-14T11:36:00;100268.34;;;2.91;100.00
52319;BME280;38258;51.148;14.068;2023-02-14T11:38:31;100261.63;;;2.70;100.00
52319;BME280;38258;51.148;14.068;2023-02-14T11:41:01;100260.28;;;2.81;100.00
52319;BME280;38258;51.148;14.068;2023-02-14T11:43:31;100256.91;;;2.58;100.00
52319;BME280;38258;51.148;14.068;2023-02-14T11:46:13;100247.88;;;2.71;100.00
52319;BME280;38258;51.148;14.068;2023-02-14T11:48:56;100256.31;;;2.65;100.00
52319;BME280;38258;51.148;14.068;2023-02-14T11:51:29;100256.97;;;2.60;100.00
52319;BME280;38258;51.148;14.068;2023-02-14T11:53:59;100246.38;;;2.78;100.00
52319;BME280;38258;51.148;14.068;2023-02-14T11:56:45;100242.97;;;2.79;100.00
52319;BME280;38258;51.148;14.068;2023-02-14T11:59:22;100246.72;;;2.89;100.00
52319;BME280;38258;51.148;14.068;2023-02-14T12:01:51;100238.88;;;2.86;100.00
52319;BME280;38258;51.148;14.068;2023-02-14T12:04:20;100236.94;;;3.06;100.00
52319;BME280;38258;51.148;14.068;2023-02-14T12:06:48;100216.06;;;2.72;100.00
52319;BME280;38258;51.148;14.068;2023-02-14T12:09:25;100232.16;;;2.91;100.00
52319;BME280;38258;51.148;14.068;2023-02-14T12:11:55;100225.28;;;2.91;100.00
52319;BME280;38258;51.148;14.068;2023-02-14T12:14:25;100219.59;;;3.02;100.00
52319;BME280;38258;51.148;14.068;2023-02-14T12:16:58;100217.13;;;3.06;100.00
52319;BME280;38258;51.148;14.068;2023-02-14T12:19:33;100202.38;;;2.76;100.00
52319;BME280;38258;51.148;14.068;2023-02-14T12:22:04;100204.38;;;2.83;100.00
52319;BME280;38258;51.148;14.068;2023-02-14T12:24:35;100221.19;;;2.98;100.00
52319;BME280;38258;51.148;14.068;2023-02-14T12:27:14;100211.88;;;2.76;100.00
52319;BME280;38258;51.148;14.068;2023-02-14T12:29:47;100201.81;;;3.13;100.00
52319;BME280;38258;51.148;14.068;2023-02-14T12:32:22;100205.91;;;3.06;100.00
52319;BME280;38258;51.148;14.068;2023-02-14T12:34:50;100200.84;;;3.09;100.00
52319;BME280;38258;51.148;14.068;2023-02-14T12:37:22;100199.66;;;3.27;100.00
52319;BME280;38258;51.148;14.068;2023-02-14T12:40:14;100201.03;;;3.44;100.00
52319;BME280;38258;51.148;14.068;2023-02-14T12:43:02;100180.22;;;3.39;100.00
52319;BME280;38258;51.148;14.068;2023-02-14T12:45:50;100193.09;;;3.09;100.00
52319;BME280;38258;51.148;14.068;2023-02-14T12:48:29;100187.38;;;2.92;100.00
52319;BME280;38258;51.148;14.068;2023-02-14T12:51:03;100189.06;;;3.19;100.00
52319;BME280;38258;51.148;14.068;2023-02-14T12:53:44;100185.56;;;3.17;100.00
52319;BME280;38258;51.148;14.068;2023-02-14T12:56:20;100182.88;;;3.14;100.00
52319;BME280;38258;51.148;14.068;2023-02-14T12:58:59;100189.88;;;3.16;100.00
52319;BME280;38258;51.148;14.068;2023-02-14T13:01:38;100176.75;;;3.39;100.00